RYR56TE LZIB-EHEH
Flight info
| Callsign | RYR56TE |
|---|---|
| Flight time | 1h 25m |
| Altitude | 38000 |
| Route | BERVA M748 ODNEM DCT BNO DCT BODAL DCT VLM DCT ELMEK DCT VEXIL DCT KATCE DCT WRB DCT DOMEG DCT ROTEK |
| Aircraft | B738/M-SDE2E3FGHIRWXY/LB1 |
Departure
| Time | 2026-05-04 08:24 |
|---|---|
| Airport | M. R. Štefánik Airport (LZIB) |
Arrival
| Time | 2026-05-04 09:49 |
|---|---|
| Airport | Eindhoven Airport (EHEH) |
| Time | Latitude | Longitude | Altitude | Speed | Heading |
|---|---|---|---|---|---|
| 2026-05-04 08:16 | 48.16949 | 17.20146 | 442 ft | 0 kts | 317° |
| 2026-05-04 08:19 | 48.16936 | 17.20237 | 442 ft | 0 kts | 223° |
| 2026-05-04 08:21 | 48.16926 | 17.20223 | 436 ft | 7 kts | 223° |
| 2026-05-04 08:21 | 48.16854 | 17.20172 | 432 ft | 14 kts | 168° |
| 2026-05-04 08:22 | 48.16784 | 17.20266 | 431 ft | 14 kts | 141° |
| 2026-05-04 08:22 | 48.16721 | 17.20366 | 442 ft | 13 kts | 134° |
| 2026-05-04 08:24 | 48.19012 | 17.23955 | 1769 ft | 214 kts | 43° |
| 2026-05-04 08:24 | 48.20175 | 17.25552 | 2430 ft | 233 kts | 47° |
| 2026-05-04 08:24 | 48.21362 | 17.27321 | 3091 ft | 246 kts | 46° |
| 2026-05-04 08:24 | 48.22611 | 17.29087 | 3715 ft | 251 kts | 39° |
| 2026-05-04 08:25 | 48.24054 | 17.30633 | 4635 ft | 256 kts | 35° |
| 2026-05-04 08:25 | 48.25539 | 17.32146 | 5559 ft | 263 kts | 35° |
| 2026-05-04 08:25 | 48.27055 | 17.33708 | 6447 ft | 269 kts | 36° |
| 2026-05-04 08:25 | 48.28621 | 17.35344 | 7377 ft | 274 kts | 36° |
| 2026-05-04 08:26 | 48.30190 | 17.36965 | 8306 ft | 277 kts | 33° |
| 2026-05-04 08:27 | 48.43953 | 17.49238 | 12578 ft | 372 kts | 27° |
| 2026-05-04 08:28 | 48.46382 | 17.50414 | 13433 ft | 374 kts | 9° |
| 2026-05-04 08:28 | 48.48975 | 17.50987 | 14217 ft | 379 kts | 8° |
| 2026-05-04 08:28 | 48.51594 | 17.51561 | 14943 ft | 384 kts | 8° |
| 2026-05-04 08:28 | 48.54245 | 17.52192 | 15721 ft | 386 kts | 9° |
| 2026-05-04 08:29 | 48.56907 | 17.52853 | 16471 ft | 389 kts | 9° |
| 2026-05-04 08:29 | 48.59606 | 17.53243 | 17116 ft | 394 kts | 355° |
| 2026-05-04 08:29 | 48.62252 | 17.52235 | 17792 ft | 396 kts | 335° |
| 2026-05-04 08:31 | 48.76195 | 17.31292 | 22088 ft | 415 kts | 313° |
| 2026-05-04 08:33 | 48.90483 | 17.08554 | 25512 ft | 434 kts | 313° |
| 2026-05-04 08:33 | 48.92565 | 17.05246 | 25930 ft | 436 kts | 313° |
| 2026-05-04 08:35 | 49.07475 | 16.81413 | 28536 ft | 452 kts | 313° |
| 2026-05-04 08:35 | 49.09614 | 16.77977 | 28880 ft | 453 kts | 313° |
| 2026-05-04 08:35 | 49.11812 | 16.74440 | 29184 ft | 455 kts | 313° |
| 2026-05-04 08:35 | 49.13974 | 16.70900 | 29484 ft | 457 kts | 310° |
| 2026-05-04 08:37 | 49.23207 | 16.45827 | 31826 ft | 451 kts | 297° |
| 2026-05-04 08:37 | 49.24690 | 16.41529 | 32191 ft | 450 kts | 297° |
| 2026-05-04 08:37 | 49.26154 | 16.37299 | 32582 ft | 449 kts | 297° |
| 2026-05-04 08:38 | 49.27570 | 16.33212 | 32954 ft | 447 kts | 297° |
| 2026-05-04 08:38 | 49.29045 | 16.28956 | 33278 ft | 447 kts | 297° |
| 2026-05-04 08:38 | 49.30484 | 16.24797 | 33556 ft | 448 kts | 297° |
| 2026-05-04 08:40 | 49.40575 | 15.95408 | 35753 ft | 442 kts | 296° |
| 2026-05-04 08:40 | 49.41996 | 15.91242 | 36103 ft | 439 kts | 296° |
| 2026-05-04 08:40 | 49.43408 | 15.87099 | 36419 ft | 438 kts | 296° |
| 2026-05-04 08:41 | 49.44822 | 15.82941 | 36617 ft | 439 kts | 296° |
| 2026-05-04 08:41 | 49.46229 | 15.78794 | 36921 ft | 437 kts | 296° |
| 2026-05-04 08:41 | 49.47624 | 15.74679 | 37359 ft | 431 kts | 296° |
| 2026-05-04 08:41 | 49.48558 | 15.71923 | 37656 ft | 428 kts | 296° |
| 2026-05-04 08:42 | 49.49926 | 15.67879 | 37977 ft | 425 kts | 296° |
| 2026-05-04 08:42 | 49.51290 | 15.63847 | 38177 ft | 426 kts | 296° |
| 2026-05-04 08:42 | 49.52658 | 15.59795 | 38318 ft | 427 kts | 296° |
| 2026-05-04 08:42 | 49.54027 | 15.55733 | 38474 ft | 428 kts | 296° |
| 2026-05-04 08:43 | 49.55399 | 15.51659 | 38693 ft | 427 kts | 295° |
| 2026-05-04 08:43 | 49.56744 | 15.47657 | 38926 ft | 426 kts | 295° |
| 2026-05-04 08:43 | 49.58125 | 15.43542 | 39017 ft | 428 kts | 295° |
| 2026-05-04 08:44 | 49.60866 | 15.35355 | 39017 ft | 429 kts | 295° |
| 2026-05-04 08:46 | 49.71255 | 15.02835 | 39035 ft | 418 kts | 285° |
| 2026-05-04 08:46 | 49.72924 | 14.94207 | 39031 ft | 419 kts | 285° |
| 2026-05-04 08:47 | 49.74577 | 14.85525 | 39035 ft | 422 kts | 285° |
| 2026-05-04 08:47 | 49.76262 | 14.76810 | 39030 ft | 424 kts | 285° |
| 2026-05-04 08:48 | 49.77968 | 14.68041 | 39035 ft | 427 kts | 285° |
| 2026-05-04 08:48 | 49.79680 | 14.59216 | 39030 ft | 429 kts | 285° |
| 2026-05-04 08:49 | 49.81393 | 14.50340 | 39033 ft | 431 kts | 285° |
| 2026-05-04 08:50 | 49.87355 | 14.19124 | 39010 ft | 431 kts | 284° |
| 2026-05-04 08:51 | 49.89033 | 14.10254 | 39034 ft | 431 kts | 284° |
| 2026-05-04 08:51 | 49.90902 | 14.01433 | 39011 ft | 432 kts | 294° |
| 2026-05-04 08:52 | 49.93784 | 13.93239 | 39029 ft | 432 kts | 297° |
| 2026-05-04 08:52 | 49.96744 | 13.85129 | 39031 ft | 432 kts | 297° |
| 2026-05-04 08:54 | 50.08331 | 13.52552 | 39038 ft | 430 kts | 296° |
| 2026-05-04 08:55 | 50.11201 | 13.44384 | 39042 ft | 430 kts | 296° |
| 2026-05-04 08:55 | 50.14067 | 13.36213 | 39039 ft | 430 kts | 296° |
| 2026-05-04 09:01 | 50.44592 | 12.49418 | 39049 ft | 439 kts | 299° |
| 2026-05-04 09:01 | 50.47819 | 12.41278 | 39046 ft | 439 kts | 299° |
| 2026-05-04 09:02 | 50.51023 | 12.33097 | 39033 ft | 440 kts | 298° |
| 2026-05-04 09:02 | 50.54202 | 12.24911 | 39039 ft | 439 kts | 298° |
| 2026-05-04 09:03 | 50.57368 | 12.16722 | 39033 ft | 437 kts | 298° |
| 2026-05-04 09:03 | 50.60516 | 12.08550 | 39035 ft | 436 kts | 298° |
| 2026-05-04 09:04 | 50.63645 | 12.00400 | 39039 ft | 434 kts | 298° |
| 2026-05-04 09:04 | 50.66743 | 11.92308 | 39034 ft | 433 kts | 297° |
| 2026-05-04 09:05 | 50.69847 | 11.84182 | 39037 ft | 432 kts | 297° |
| 2026-05-04 09:05 | 50.72935 | 11.76067 | 39041 ft | 431 kts | 297° |
| 2026-05-04 09:06 | 50.76018 | 11.67940 | 39033 ft | 431 kts | 297° |
| 2026-05-04 09:08 | 50.88270 | 11.35385 | 39031 ft | 430 kts | 297° |
| 2026-05-04 09:08 | 50.91320 | 11.27220 | 39028 ft | 431 kts | 297° |
| 2026-05-04 09:09 | 50.94362 | 11.19048 | 39026 ft | 430 kts | 297° |
| 2026-05-04 09:09 | 50.97399 | 11.10863 | 39022 ft | 430 kts | 296° |
| 2026-05-04 09:10 | 51.00424 | 11.02683 | 39019 ft | 430 kts | 296° |
| 2026-05-04 09:10 | 51.03451 | 10.94474 | 39021 ft | 430 kts | 296° |
| 2026-05-04 09:11 | 51.06459 | 10.86291 | 39016 ft | 429 kts | 296° |
| 2026-05-04 09:11 | 51.09445 | 10.78140 | 39026 ft | 429 kts | 296° |
| 2026-05-04 09:12 | 51.12444 | 10.69929 | 39021 ft | 429 kts | 296° |
| 2026-05-04 09:14 | 51.24387 | 10.36964 | 39016 ft | 428 kts | 295° |
| 2026-05-04 09:14 | 51.26628 | 10.28267 | 39029 ft | 423 kts | 285° |
| 2026-05-04 09:15 | 51.28454 | 10.19347 | 39021 ft | 423 kts | 284° |
| 2026-05-04 09:15 | 51.30283 | 10.10425 | 39016 ft | 423 kts | 284° |
| 2026-05-04 09:17 | 51.38621 | 9.70207 | 39019 ft | 423 kts | 284° |
| 2026-05-04 09:18 | 51.40453 | 9.61277 | 39024 ft | 423 kts | 284° |
| 2026-05-04 09:18 | 51.42281 | 9.52323 | 39016 ft | 423 kts | 284° |
| 2026-05-04 09:19 | 51.44089 | 9.43427 | 39021 ft | 422 kts | 284° |
| 2026-05-04 09:19 | 51.45913 | 9.34423 | 39018 ft | 422 kts | 284° |
| 2026-05-04 09:20 | 51.47718 | 9.25465 | 39006 ft | 422 kts | 284° |
| 2026-05-04 09:20 | 51.49506 | 9.16560 | 39026 ft | 422 kts | 284° |
| 2026-05-04 09:21 | 51.51179 | 9.07513 | 39020 ft | 421 kts | 280° |
| 2026-05-04 09:21 | 51.52457 | 8.98356 | 39008 ft | 421 kts | 278° |
| 2026-05-04 09:22 | 51.53684 | 8.89162 | 39008 ft | 421 kts | 279° |
| 2026-05-04 09:22 | 51.54931 | 8.79975 | 38999 ft | 420 kts | 279° |
| 2026-05-04 09:23 | 51.56186 | 8.70813 | 39005 ft | 420 kts | 279° |
| 2026-05-04 09:23 | 51.57443 | 8.61629 | 38992 ft | 420 kts | 279° |
| 2026-05-04 09:25 | 51.61785 | 8.29443 | 38062 ft | 424 kts | 279° |
| 2026-05-04 09:25 | 51.62402 | 8.24816 | 37491 ft | 421 kts | 278° |
| 2026-05-04 09:26 | 51.63012 | 8.20229 | 36869 ft | 419 kts | 278° |
| 2026-05-04 09:26 | 51.63620 | 8.15637 | 36249 ft | 418 kts | 278° |
| 2026-05-04 09:26 | 51.64222 | 8.11069 | 35577 ft | 417 kts | 278° |
| 2026-05-04 09:26 | 51.64823 | 8.06496 | 34865 ft | 418 kts | 277° |
| 2026-05-04 09:27 | 51.65423 | 8.01914 | 34145 ft | 419 kts | 277° |
| 2026-05-04 09:27 | 51.66025 | 7.97310 | 33402 ft | 420 kts | 277° |
| 2026-05-04 09:27 | 51.66625 | 7.92702 | 32657 ft | 421 kts | 277° |
| 2026-05-04 09:27 | 51.67217 | 7.88144 | 31888 ft | 421 kts | 277° |
| 2026-05-04 09:28 | 51.67621 | 7.85028 | 31350 ft | 422 kts | 277° |
| 2026-05-04 09:28 | 51.68414 | 7.78891 | 30271 ft | 423 kts | 277° |
| 2026-05-04 09:28 | 51.68818 | 7.75765 | 29782 ft | 422 kts | 277° |
| 2026-05-04 09:28 | 51.69599 | 7.69699 | 29011 ft | 414 kts | 277° |
| 2026-05-04 09:29 | 51.70176 | 7.65176 | 28408 ft | 409 kts | 277° |
| 2026-05-04 09:29 | 51.70552 | 7.62200 | 28014 ft | 406 kts | 276° |
| 2026-05-04 09:29 | 51.70885 | 7.57731 | 27433 ft | 398 kts | 269° |
| 2026-05-04 09:29 | 51.70812 | 7.53337 | 26969 ft | 389 kts | 263° |
| 2026-05-04 09:30 | 51.70590 | 7.49005 | 26391 ft | 386 kts | 262° |
| 2026-05-04 09:30 | 51.70364 | 7.44714 | 25826 ft | 382 kts | 262° |
| 2026-05-04 09:30 | 51.70141 | 7.40461 | 25255 ft | 380 kts | 262° |
| 2026-05-04 09:30 | 51.69925 | 7.36254 | 24693 ft | 378 kts | 262° |
| 2026-05-04 09:31 | 51.69712 | 7.32041 | 24127 ft | 377 kts | 262° |
| 2026-05-04 09:31 | 51.69497 | 7.27792 | 23567 ft | 385 kts | 263° |
| 2026-05-04 09:31 | 51.69279 | 7.23461 | 22985 ft | 391 kts | 263° |
| 2026-05-04 09:31 | 51.69060 | 7.19104 | 22386 ft | 389 kts | 263° |
| 2026-05-04 09:32 | 51.68843 | 7.14782 | 21793 ft | 385 kts | 263° |
| 2026-05-04 09:32 | 51.68628 | 7.10504 | 21207 ft | 381 kts | 263° |
| 2026-05-04 09:34 | 51.67121 | 6.81593 | 17256 ft | 360 kts | 263° |
| 2026-05-04 09:34 | 51.66906 | 6.77598 | 16704 ft | 357 kts | 263° |
| 2026-05-04 09:34 | 51.66691 | 6.73612 | 16155 ft | 355 kts | 263° |
| 2026-05-04 09:34 | 51.66478 | 6.69673 | 15614 ft | 352 kts | 263° |
| 2026-05-04 09:35 | 51.66264 | 6.65769 | 15068 ft | 350 kts | 263° |
| 2026-05-04 09:35 | 51.66050 | 6.61871 | 14528 ft | 347 kts | 263° |
| 2026-05-04 09:35 | 51.65839 | 6.58060 | 14005 ft | 345 kts | 263° |
| 2026-05-04 09:35 | 51.65622 | 6.54176 | 13445 ft | 343 kts | 263° |
| 2026-05-04 09:37 | 51.64151 | 6.28280 | 10530 ft | 309 kts | 264° |
| 2026-05-04 09:37 | 51.63955 | 6.24895 | 10396 ft | 298 kts | 263° |
| 2026-05-04 09:38 | 51.63764 | 6.21622 | 10265 ft | 289 kts | 263° |
| 2026-05-04 09:38 | 51.63587 | 6.18596 | 10148 ft | 280 kts | 263° |
| 2026-05-04 09:38 | 51.63406 | 6.15526 | 10024 ft | 272 kts | 263° |
| 2026-05-04 09:38 | 51.63227 | 6.12532 | 9787 ft | 268 kts | 263° |
| 2026-05-04 09:39 | 51.63064 | 6.09763 | 9512 ft | 267 kts | 264° |
| 2026-05-04 09:39 | 51.62912 | 6.06652 | 9187 ft | 267 kts | 265° |
| 2026-05-04 09:39 | 51.62778 | 6.03675 | 8878 ft | 266 kts | 265° |
| 2026-05-04 09:39 | 51.62643 | 6.00706 | 8578 ft | 266 kts | 265° |
| 2026-05-04 09:40 | 51.62504 | 5.97734 | 8279 ft | 265 kts | 265° |
| 2026-05-04 09:40 | 51.62364 | 5.94786 | 7981 ft | 264 kts | 264° |
| 2026-05-04 09:40 | 51.62222 | 5.91848 | 7689 ft | 264 kts | 264° |
| 2026-05-04 09:40 | 51.61917 | 5.88949 | 7378 ft | 263 kts | 247° |
| 2026-05-04 09:41 | 51.60948 | 5.86554 | 7109 ft | 260 kts | 227° |
| 2026-05-04 09:42 | 51.52593 | 5.71546 | 4871 ft | 259 kts | 261° |
| 2026-05-04 09:43 | 51.52745 | 5.68728 | 4556 ft | 253 kts | 288° |
| 2026-05-04 09:43 | 51.53590 | 5.66339 | 4369 ft | 241 kts | 308° |
| 2026-05-04 09:43 | 51.54688 | 5.64420 | 4239 ft | 228 kts | 314° |
| 2026-05-04 09:43 | 51.55691 | 5.62477 | 3926 ft | 224 kts | 305° |
| 2026-05-04 09:44 | 51.56586 | 5.60485 | 3656 ft | 214 kts | 304° |
| 2026-05-04 09:44 | 51.57420 | 5.58612 | 3525 ft | 198 kts | 304° |
| 2026-05-04 09:44 | 51.58208 | 5.56853 | 3289 ft | 193 kts | 304° |
| 2026-05-04 09:46 | 51.53945 | 5.47487 | 1996 ft | 150 kts | 213° |
| 2026-05-04 09:46 | 51.53086 | 5.46521 | 1796 ft | 151 kts | 213° |
| 2026-05-04 09:46 | 51.52226 | 5.45555 | 1604 ft | 151 kts | 214° |
| 2026-05-04 09:47 | 51.51375 | 5.44601 | 1413 ft | 145 kts | 214° |
| 2026-05-04 09:47 | 51.50574 | 5.43702 | 1204 ft | 137 kts | 214° |
| 2026-05-04 09:49 | 51.45277 | 5.37752 | 68 ft | 106 kts | 215° |
| 2026-05-04 09:49 | 51.44853 | 5.37276 | 71 ft | 43 kts | 215° |
| 2026-05-04 09:49 | 51.44744 | 5.37147 | 71 ft | 17 kts | 229° |
| 2026-05-04 09:51 | 51.45367 | 5.37560 | 67 ft | 29 kts | 35° |
| 2026-05-04 09:51 | 51.45527 | 5.37747 | 68 ft | 28 kts | 33° |
| 2026-05-04 09:51 | 51.45679 | 5.37917 | 72 ft | 26 kts | 36° |
| 2026-05-04 09:51 | 51.45819 | 5.38079 | 69 ft | 24 kts | 36° |
| 2026-05-04 09:52 | 51.45953 | 5.38221 | 72 ft | 23 kts | 34° |
| 2026-05-04 09:52 | 51.45975 | 5.38364 | 75 ft | 15 kts | 122° |
| 2026-05-04 09:52 | 51.45914 | 5.38501 | 76 ft | 16 kts | 124° |
| 2026-05-04 09:52 | 51.45842 | 5.38666 | 74 ft | 19 kts | 125° |
| 2026-05-04 09:53 | 51.45784 | 5.38784 | 74 ft | 9 kts | 148° |
| 2026-05-04 09:53 | 51.45737 | 5.38778 | 74 ft | 7 kts | 181° |
| 2026-05-04 09:53 | 51.45698 | 5.38828 | 74 ft | 8 kts | 126° |
| 2026-05-04 09:53 | 51.45686 | 5.38854 | 74 ft | 0 kts | 127° |